createdAt,value
2023-08-14T00:00:56.161Z,49.23
2023-08-14T00:03:39.224Z,49.25
2023-08-14T00:06:09.318Z,49.35
2023-08-14T00:08:39.445Z,49.53
2023-08-14T00:11:09.096Z,49.93
2023-08-14T00:13:57.670Z,49.85
2023-08-14T00:16:27.504Z,49.83
2023-08-14T00:18:56.812Z,49.76
2023-08-14T00:21:26.893Z,49.87
2023-08-14T00:23:56.051Z,50.22
2023-08-14T00:26:25.308Z,50.29
2023-08-14T00:28:55.259Z,50.40
2023-08-14T00:31:24.491Z,50.48
2023-08-14T00:33:54.128Z,50.79
2023-08-14T00:36:23.412Z,51.01
2023-08-14T00:38:53.352Z,50.92
2023-08-14T00:41:23.467Z,51.31
2023-08-14T00:43:54.926Z,51.29
2023-08-14T00:46:28.264Z,51.46
2023-08-14T00:48:59.599Z,51.42
2023-08-14T00:51:29.435Z,51.52
2023-08-14T00:53:59.694Z,51.55
2023-08-14T00:56:30.943Z,51.55
2023-08-14T00:59:01.008Z,51.74
2023-08-14T01:01:30.102Z,51.85
2023-08-14T01:04:01.541Z,52.05
2023-08-14T01:06:30.996Z,52.39
2023-08-14T01:09:00.624Z,52.36
2023-08-14T01:11:35.651Z,52.73
2023-08-14T01:14:29.577Z,52.93
2023-08-14T01:17:07.620Z,53.18
2023-08-14T01:19:45.485Z,52.97
2023-08-14T01:22:57.370Z,52.75
2023-08-14T01:25:33.403Z,52.92
2023-08-14T01:28:04.624Z,52.90
2023-08-14T01:30:35.061Z,53.19
2023-08-14T01:33:05.692Z,53.10
2023-08-14T01:35:48.196Z,53.00
2023-08-14T01:39:03.020Z,53.57
2023-08-14T01:42:12.680Z,53.36
2023-08-14T01:44:44.329Z,53.75
2023-08-14T01:47:18.643Z,53.78
2023-08-14T01:49:51.601Z,53.81
2023-08-14T01:52:21.887Z,53.83
2023-08-14T01:54:52.412Z,54.04
2023-08-14T01:57:22.331Z,54.35
2023-08-14T01:59:51.597Z,54.51
2023-08-14T02:02:21.582Z,54.86
2023-08-14T02:04:54.150Z,54.45
2023-08-14T02:07:24.952Z,54.47
2023-08-14T02:09:54.119Z,54.62
2023-08-14T02:12:24.970Z,54.44
2023-08-14T02:14:55.793Z,54.59
2023-08-14T02:17:25.279Z,54.77
2023-08-14T02:19:56.620Z,55.05
2023-08-14T02:22:25.856Z,55.46
2023-08-14T02:24:55.885Z,55.72
2023-08-14T02:27:25.206Z,56.03
2023-08-14T02:29:55.034Z,56.07
2023-08-14T02:32:25.122Z,55.86
2023-08-14T02:34:55.097Z,55.84
2023-08-14T02:37:26.337Z,55.69
2023-08-14T02:39:57.939Z,55.82
2023-08-14T02:42:28.473Z,55.40
2023-08-14T02:44:59.731Z,55.10
2023-08-14T02:47:28.859Z,54.94
2023-08-14T02:49:58.672Z,55.04
2023-08-14T02:52:28.300Z,55.33
2023-08-14T02:54:58.129Z,55.69
2023-08-14T02:57:28.154Z,56.00
2023-08-14T02:59:59.187Z,56.36
2023-08-14T03:02:29.676Z,56.33
2023-08-14T03:04:59.788Z,56.56
2023-08-14T03:07:29.055Z,56.68
2023-08-14T03:09:58.361Z,56.77
2023-08-14T03:12:27.575Z,56.62
2023-08-14T03:14:57.117Z,56.71
2023-08-14T03:17:26.941Z,56.51
2023-08-14T03:19:56.700Z,56.66
2023-08-14T03:22:26.385Z,56.60
2023-08-14T03:24:56.344Z,56.60
2023-08-14T03:27:26.650Z,56.49
2023-08-14T03:29:56.470Z,56.68
2023-08-14T03:32:26.364Z,57.00
2023-08-14T03:34:56.714Z,57.19
2023-08-14T03:37:26.242Z,57.62
2023-08-14T03:39:57.161Z,57.42
2023-08-14T03:42:26.834Z,57.45
2023-08-14T03:44:56.064Z,57.47
2023-08-14T03:47:25.515Z,57.47
2023-08-14T03:49:54.779Z,57.61
2023-08-14T03:52:24.552Z,57.85
2023-08-14T03:54:54.583Z,57.66
2023-08-14T03:57:25.500Z,57.44
2023-08-14T03:59:54.666Z,57.05
2023-08-14T04:02:24.438Z,57.05
2023-08-14T04:04:53.640Z,56.70
2023-08-14T04:07:22.945Z,56.33
2023-08-14T04:09:52.693Z,56.26
2023-08-14T04:12:22.867Z,55.95
2023-08-14T04:14:53.884Z,56.18
2023-08-14T04:17:23.246Z,56.29
2023-08-14T04:19:52.086Z,56.33
2023-08-14T04:22:21.948Z,56.40
2023-08-14T04:24:51.368Z,56.39
2023-08-14T04:27:20.903Z,56.45
2023-08-14T04:29:51.509Z,56.32
2023-08-14T04:32:21.205Z,56.71
2023-08-14T04:34:51.107Z,56.75
2023-08-14T04:37:21.877Z,56.86
2023-08-14T04:39:52.311Z,56.52
2023-08-14T04:42:22.623Z,56.37
2023-08-14T04:44:52.554Z,56.38
2023-08-14T04:47:21.588Z,56.73
2023-08-14T04:49:52.187Z,56.95
2023-08-14T04:52:24.226Z,57.10
2023-08-14T04:54:54.751Z,57.48
2023-08-14T04:57:24.301Z,57.60
2023-08-14T04:59:53.813Z,57.65
2023-08-14T05:02:23.639Z,57.48
2023-08-14T05:04:53.944Z,57.67
2023-08-14T05:07:26.977Z,57.86
2023-08-14T05:09:57.373Z,57.96
2023-08-14T05:12:27.124Z,57.76
2023-08-14T05:14:56.532Z,57.78
2023-08-14T05:17:26.658Z,57.67
2023-08-14T05:19:56.395Z,57.55
2023-08-14T05:22:25.716Z,57.45
2023-08-14T05:24:55.387Z,57.34
2023-08-14T05:27:26.959Z,57.26
2023-08-14T05:29:59.089Z,57.19
2023-08-14T05:32:29.189Z,56.96
2023-08-14T05:34:58.844Z,56.77
2023-08-14T05:37:28.513Z,56.66
2023-08-14T05:39:57.967Z,56.87
2023-08-14T05:42:27.537Z,56.75
2023-08-14T05:44:56.825Z,56.77
2023-08-14T05:47:26.796Z,56.93
2023-08-14T05:49:57.050Z,56.71
2023-08-14T05:52:27.058Z,56.49
2023-08-14T05:54:59.336Z,56.05
2023-08-14T05:57:30.621Z,55.89
2023-08-14T06:00:00.801Z,55.87
2023-08-14T06:02:30.322Z,55.86
2023-08-14T06:05:00.994Z,55.89
2023-08-14T06:07:31.142Z,55.85
2023-08-14T06:10:01.350Z,55.64
2023-08-14T06:12:30.929Z,55.73
2023-08-14T06:15:00.635Z,55.44
2023-08-14T06:17:32.665Z,54.84
2023-08-14T06:20:02.742Z,54.62
2023-08-14T06:22:32.615Z,54.04
2023-08-14T06:25:02.741Z,53.98
2023-08-14T06:27:32.780Z,53.78
2023-08-14T06:30:02.554Z,53.37
2023-08-14T06:32:32.175Z,53.14
2023-08-14T06:35:02.107Z,52.93
2023-08-14T06:37:31.944Z,52.58
2023-08-14T06:40:01.496Z,52.70
2023-08-14T06:42:30.772Z,52.13
2023-08-14T06:45:00.173Z,51.76
2023-08-14T06:47:30.414Z,51.36
2023-08-14T06:49:59.777Z,51.45
2023-08-14T06:52:29.313Z,50.98
2023-08-14T06:54:58.930Z,50.03
2023-08-14T06:57:28.505Z,48.86
2023-08-14T06:59:58.520Z,47.44
2023-08-14T07:02:28.441Z,45.65
2023-08-14T07:04:58.593Z,44.46
2023-08-14T07:07:28.278Z,42.99
2023-08-14T07:09:58.468Z,42.08
2023-08-14T07:12:29.062Z,41.48
2023-08-14T07:14:58.932Z,40.60
2023-08-14T07:17:29.398Z,39.69
2023-08-14T07:19:59.038Z,38.49
2023-08-14T07:22:28.971Z,37.59
2023-08-14T07:24:59.294Z,36.70
2023-08-14T07:27:29.149Z,36.42
2023-08-14T07:30:00.564Z,35.84
2023-08-14T07:32:30.568Z,35.62
2023-08-14T07:35:00.259Z,34.66
2023-08-14T07:37:29.681Z,34.45
2023-08-14T07:40:00.237Z,34.12
2023-08-14T07:42:30.718Z,33.93
2023-08-14T07:45:00.560Z,33.48
2023-08-14T07:47:29.627Z,32.35
2023-08-14T07:49:59.244Z,32.24
2023-08-14T07:52:32.164Z,31.80
2023-08-14T07:55:01.823Z,31.58
2023-08-14T07:57:31.644Z,30.91
2023-08-14T08:00:00.923Z,29.75
2023-08-14T08:02:30.269Z,29.00
2023-08-14T08:04:59.865Z,28.39
2023-08-14T08:09:59.784Z,27.93
2023-08-14T08:12:29.148Z,27.87
2023-08-14T08:14:58.870Z,27.55
2023-08-14T08:17:28.396Z,26.92
2023-08-14T08:19:58.938Z,26.51
2023-08-14T08:22:28.959Z,26.03
2023-08-14T08:24:58.697Z,25.45
2023-08-14T08:27:27.786Z,24.78
2023-08-14T08:29:56.805Z,24.13
2023-08-14T08:32:26.965Z,23.41
2023-08-14T08:34:58.218Z,22.54
2023-08-14T08:37:27.743Z,22.19
2023-08-14T08:39:57.126Z,22.10
2023-08-14T08:42:28.042Z,22.03
2023-08-14T08:45:04.037Z,21.75
2023-08-14T08:47:40.192Z,21.74
2023-08-14T08:50:11.643Z,21.58
2023-08-14T08:52:41.691Z,20.99
2023-08-14T08:55:11.043Z,20.49
2023-08-14T08:57:41.479Z,20.07
2023-08-14T09:00:11.765Z,19.84
2023-08-14T09:02:41.525Z,19.74
2023-08-14T09:05:11.199Z,19.56
2023-08-14T09:07:40.312Z,19.37
2023-08-14T09:10:10.445Z,18.76
2023-08-14T09:12:40.806Z,18.38
2023-08-14T09:15:11.214Z,17.84
2023-08-14T09:17:40.734Z,17.24
2023-08-14T09:20:28.241Z,17.09
2023-08-14T09:23:00.616Z,16.73
2023-08-14T09:25:30.132Z,16.64
2023-08-14T09:28:00.507Z,16.11
2023-08-14T09:30:30.607Z,15.71
2023-08-14T09:33:00.590Z,15.69
2023-08-14T09:35:30.414Z,15.85
2023-08-14T09:38:00.809Z,15.95
2023-08-14T09:40:30.886Z,15.44
2023-08-14T09:43:01.180Z,14.72
2023-08-14T09:45:31.128Z,14.70
2023-08-14T09:48:07.361Z,14.44
2023-08-14T09:50:37.608Z,14.15
2023-08-14T09:53:07.339Z,14.03
2023-08-14T09:55:37.729Z,14.19
2023-08-14T09:58:13.706Z,13.77
2023-08-14T10:00:43.517Z,13.19
2023-08-14T10:03:14.112Z,13.06
2023-08-14T10:05:44.488Z,12.79
2023-08-14T10:08:16.094Z,12.57
2023-08-14T10:10:56.115Z,12.29
2023-08-14T10:13:42.739Z,12.16
2023-08-14T10:16:19.054Z,11.86
2023-08-14T10:18:50.442Z,11.44
2023-08-14T10:21:21.079Z,11.05
2023-08-14T10:23:54.305Z,11.10
2023-08-14T10:26:27.390Z,10.89
2023-08-14T10:28:59.937Z,10.83
2023-08-14T10:31:31.589Z,10.60
2023-08-14T10:34:03.391Z,10.31
2023-08-14T10:36:39.275Z,10.30
2023-08-14T10:39:18.900Z,10.60
2023-08-14T10:41:49.234Z,10.74
2023-08-14T10:44:19.243Z,10.66
2023-08-14T10:46:48.766Z,10.67
2023-08-14T10:49:18.575Z,10.75
2023-08-14T10:51:49.624Z,10.79
2023-08-14T10:54:19.558Z,10.22
2023-08-14T10:56:50.907Z,10.67
2023-08-14T10:59:28.305Z,10.70
2023-08-14T11:02:17.885Z,10.57
2023-08-14T11:05:13.987Z,10.77
2023-08-14T11:07:58.601Z,11.31
2023-08-14T11:10:28.768Z,11.13
2023-08-14T11:12:58.956Z,11.19
2023-08-14T11:15:31.490Z,10.46
2023-08-14T11:18:02.118Z,10.83
2023-08-14T11:20:32.226Z,10.86
2023-08-14T11:23:02.485Z,10.66
2023-08-14T11:25:36.313Z,10.65
2023-08-14T11:28:08.012Z,10.90
2023-08-14T11:30:38.909Z,10.96
2023-08-14T11:33:09.490Z,10.93
2023-08-14T11:35:42.178Z,10.24
2023-08-14T11:40:50.144Z,9.95
2023-08-14T11:43:20.434Z,9.87
2023-08-14T11:45:51.340Z,9.85
2023-08-14T11:48:21.164Z,10.00
2023-08-14T11:50:52.626Z,10.08
2023-08-14T11:53:23.828Z,10.14
2023-08-14T11:55:53.878Z,9.86
2023-08-14T11:58:25.081Z,10.33
2023-08-14T12:00:58.221Z,10.27
2023-08-14T12:03:28.694Z,10.13
2023-08-14T12:06:05.775Z,10.40
2023-08-14T12:08:37.245Z,9.56
2023-08-14T12:11:13.358Z,9.57
2023-08-14T12:13:55.302Z,9.96
2023-08-14T12:16:28.853Z,9.92
2023-08-14T12:19:04.249Z,9.84
2023-08-14T12:21:35.818Z,9.24
2023-08-14T12:24:08.896Z,9.52
2023-08-14T12:26:42.647Z,9.46
2023-08-14T12:29:17.605Z,9.03
2023-08-14T12:31:48.754Z,9.27
2023-08-14T12:34:24.447Z,8.84
2023-08-14T12:36:56.003Z,8.89
2023-08-14T12:39:25.823Z,8.79
2023-08-14T12:42:01.695Z,8.86
2023-08-14T12:44:32.943Z,8.80
2023-08-14T12:47:03.648Z,8.22
2023-08-14T12:49:37.981Z,8.25
2023-08-14T12:52:10.628Z,8.47
2023-08-14T12:54:41.735Z,8.57
2023-08-14T12:57:15.801Z,8.96
2023-08-14T12:59:50.699Z,9.20
2023-08-14T13:04:58.996Z,9.45
2023-08-14T13:07:31.787Z,10.04
2023-08-14T13:10:02.434Z,9.88
2023-08-14T13:12:34.234Z,9.71
2023-08-14T13:15:05.990Z,9.73
2023-08-14T13:17:36.863Z,9.65
2023-08-14T13:20:10.050Z,9.57
2023-08-14T13:22:42.104Z,9.48
2023-08-14T13:25:13.263Z,9.66
2023-08-14T13:30:20.303Z,9.60
2023-08-14T13:32:51.887Z,9.61
2023-08-14T13:35:21.669Z,9.47
2023-08-14T13:37:53.590Z,9.37
2023-08-14T13:40:25.372Z,8.93
2023-08-14T13:42:57.673Z,9.32
2023-08-14T13:45:29.176Z,9.76
2023-08-14T13:48:01.674Z,9.66
2023-08-14T13:50:35.832Z,9.71
2023-08-14T13:53:07.573Z,9.57
2023-08-14T13:55:37.508Z,9.73
2023-08-14T13:58:08.439Z,10.49
2023-08-14T14:00:41.025Z,10.61
2023-08-14T14:03:13.123Z,10.71
2023-08-14T14:05:44.574Z,10.83
2023-08-14T14:08:16.011Z,10.80
2023-08-14T14:10:48.328Z,10.74
2023-08-14T14:13:19.129Z,10.84
2023-08-14T14:15:49.821Z,11.38
2023-08-14T14:18:20.142Z,11.31
2023-08-14T14:20:51.647Z,11.41
2023-08-14T14:23:23.008Z,10.84
2023-08-14T14:25:53.462Z,10.98
2023-08-14T14:28:25.028Z,10.83
2023-08-14T14:30:58.126Z,11.26
2023-08-14T14:33:29.428Z,11.44
2023-08-14T14:36:02.308Z,11.25
2023-08-14T14:38:35.288Z,11.06
2023-08-14T14:41:08.124Z,11.05
2023-08-14T14:43:39.750Z,11.69
2023-08-14T14:46:11.337Z,11.88
2023-08-14T14:48:42.116Z,12.08
2023-08-14T14:51:12.542Z,12.01
2023-08-14T14:53:44.072Z,11.89
2023-08-14T14:56:16.508Z,11.84
2023-08-14T14:58:48.128Z,11.94
2023-08-14T15:01:20.295Z,12.23
2023-08-14T15:03:53.363Z,12.01
2023-08-14T15:06:26.331Z,12.35
2023-08-14T15:08:59.006Z,12.51
2023-08-14T15:11:31.086Z,12.47
2023-08-14T15:14:02.199Z,12.30
2023-08-14T15:16:33.742Z,12.44
2023-08-14T15:19:05.048Z,12.27
2023-08-14T15:21:36.353Z,12.75
2023-08-14T15:24:08.712Z,12.76
2023-08-14T15:26:40.818Z,13.26
2023-08-14T15:29:11.763Z,13.10
2023-08-14T15:31:42.101Z,13.27
2023-08-14T15:34:14.076Z,13.61
2023-08-14T15:36:45.062Z,14.15
2023-08-14T15:39:15.771Z,14.63
2023-08-14T15:41:46.475Z,15.08
2023-08-14T15:44:16.753Z,15.29
2023-08-14T15:46:48.366Z,15.69
2023-08-14T15:49:19.437Z,15.74
2023-08-14T15:51:50.780Z,15.94
2023-08-14T15:54:22.760Z,15.82
2023-08-14T15:56:55.538Z,15.94
2023-08-14T15:59:30.272Z,16.47
2023-08-14T16:02:01.078Z,16.35
2023-08-14T16:04:32.483Z,16.37
2023-08-14T16:07:04.576Z,16.61
2023-08-14T16:09:36.857Z,16.73
2023-08-14T16:12:09.974Z,17.62
2023-08-14T16:14:41.886Z,17.51
2023-08-14T16:17:14.958Z,17.23
2023-08-14T16:19:45.091Z,17.27
2023-08-14T16:22:15.457Z,17.16
2023-08-14T16:24:46.105Z,16.93
2023-08-14T16:27:16.373Z,17.29
2023-08-14T16:29:48.093Z,16.95
2023-08-14T16:32:19.172Z,17.13
2023-08-14T16:34:50.120Z,17.75
2023-08-14T16:37:20.035Z,17.62
2023-08-14T16:39:50.931Z,17.89
2023-08-14T16:42:22.699Z,18.60
2023-08-14T16:44:54.579Z,21.12
2023-08-14T16:47:27.165Z,23.34
2023-08-14T16:50:00.670Z,24.97
2023-08-14T16:52:34.027Z,26.01
2023-08-14T16:55:04.882Z,26.74
2023-08-14T16:57:35.800Z,27.56
2023-08-14T17:00:07.625Z,28.00
2023-08-14T17:02:39.635Z,28.32
2023-08-14T17:05:10.473Z,28.58
2023-08-14T17:07:43.116Z,28.75
2023-08-14T17:10:13.639Z,29.13
2023-08-14T17:12:43.964Z,29.67
2023-08-14T17:15:13.806Z,29.85
2023-08-14T17:17:43.842Z,30.36
2023-08-14T17:20:17.153Z,30.21
2023-08-14T17:22:48.452Z,30.41
2023-08-14T17:25:18.317Z,30.74
2023-08-14T17:27:48.985Z,31.00
2023-08-14T17:30:18.524Z,31.16
2023-08-14T17:32:52.746Z,31.48
2023-08-14T17:35:24.172Z,31.84
2023-08-14T17:37:53.856Z,32.04
2023-08-14T17:40:25.036Z,32.35
2023-08-14T17:42:57.074Z,32.42
2023-08-14T17:45:27.244Z,32.83
2023-08-14T17:47:59.521Z,32.86
2023-08-14T17:50:31.623Z,32.69
2023-08-14T17:53:03.549Z,32.93
2023-08-14T17:55:33.645Z,33.08
2023-08-14T17:58:03.282Z,33.30
2023-08-14T18:00:33.641Z,33.33
2023-08-14T18:03:05.740Z,33.54
2023-08-14T18:05:36.412Z,33.97
2023-08-14T18:08:08.569Z,34.12
2023-08-14T18:10:39.254Z,34.27
2023-08-14T18:13:09.507Z,34.53
2023-08-14T18:15:41.196Z,34.36
2023-08-14T18:18:12.905Z,34.78
2023-08-14T18:20:46.646Z,35.52
2023-08-14T18:23:17.630Z,35.61
2023-08-14T18:25:47.577Z,35.86
2023-08-14T18:28:18.594Z,35.95
2023-08-14T18:30:50.598Z,35.90
2023-08-14T18:33:22.013Z,35.66
2023-08-14T18:35:52.263Z,35.93
2023-08-14T18:38:23.017Z,36.07
2023-08-14T18:40:53.738Z,35.98
2023-08-14T18:43:23.195Z,36.40
2023-08-14T18:45:55.681Z,36.35
2023-08-14T18:48:25.815Z,36.35
2023-08-14T18:50:57.088Z,36.51
2023-08-14T18:53:30.422Z,36.76
2023-08-14T18:56:01.961Z,37.05
2023-08-14T18:58:33.912Z,37.00
2023-08-14T19:01:05.656Z,37.19
2023-08-14T19:03:35.941Z,37.48
2023-08-14T19:06:06.819Z,37.37
2023-08-14T19:08:37.891Z,37.62
2023-08-14T19:11:09.448Z,37.99
2023-08-14T19:13:39.635Z,37.97
2023-08-14T19:16:09.211Z,38.36
2023-08-14T19:18:41.532Z,38.62
2023-08-14T19:21:14.356Z,38.77
2023-08-14T19:23:48.017Z,39.15
2023-08-14T19:26:27.620Z,39.04
2023-08-14T19:28:59.141Z,39.78
2023-08-14T19:31:29.888Z,40.40
2023-08-14T19:34:03.418Z,40.70
2023-08-14T19:36:33.816Z,40.63
2023-08-14T19:39:03.354Z,40.77
2023-08-14T19:41:33.275Z,40.99
2023-08-14T19:44:06.499Z,40.65
2023-08-14T19:46:37.688Z,41.05
2023-08-14T19:49:07.129Z,41.22
2023-08-14T19:51:37.792Z,41.54
2023-08-14T19:54:09.169Z,42.26
2023-08-14T19:56:38.714Z,42.56
2023-08-14T19:59:09.485Z,42.98
2023-08-14T20:01:39.410Z,43.52
2023-08-14T20:04:10.177Z,43.44
2023-08-14T20:06:44.055Z,44.00
2023-08-14T20:09:14.390Z,43.94
2023-08-14T20:11:46.878Z,44.04
2023-08-14T20:14:18.420Z,44.12
2023-08-14T20:16:49.005Z,44.14
2023-08-14T20:19:22.773Z,44.04
2023-08-14T20:21:53.624Z,43.98
2023-08-14T20:24:23.794Z,44.17
2023-08-14T20:26:55.525Z,44.20
2023-08-14T20:29:27.566Z,44.60
2023-08-14T20:31:57.449Z,44.61
2023-08-14T20:34:29.237Z,44.83
2023-08-14T20:36:59.770Z,44.81
2023-08-14T20:39:30.530Z,44.84
2023-08-14T20:42:00.082Z,44.85
2023-08-14T20:44:30.961Z,45.05
2023-08-14T20:47:03.675Z,44.84
2023-08-14T20:49:34.537Z,44.80
2023-08-14T20:52:04.365Z,44.94
2023-08-14T20:54:34.572Z,45.03
2023-08-14T20:57:05.143Z,45.08
2023-08-14T20:59:38.328Z,45.15
2023-08-14T21:02:09.399Z,45.11
2023-08-14T21:04:39.805Z,45.49
2023-08-14T21:07:10.046Z,45.74
2023-08-14T21:09:39.723Z,46.07
2023-08-14T21:12:11.897Z,46.37
2023-08-14T21:14:42.418Z,46.68
2023-08-14T21:17:12.532Z,46.92
2023-08-14T21:19:41.855Z,47.12
2023-08-14T21:22:11.310Z,47.34
2023-08-14T21:24:41.371Z,47.70
2023-08-14T21:27:11.373Z,47.78
2023-08-14T21:29:41.035Z,48.13
2023-08-14T21:32:11.237Z,48.17
2023-08-14T21:34:42.192Z,48.00
2023-08-14T21:37:12.367Z,47.71
2023-08-14T21:39:43.148Z,47.79
2023-08-14T21:42:13.970Z,47.90
2023-08-14T21:44:44.280Z,48.87
2023-08-14T21:47:13.874Z,49.35
2023-08-14T21:49:45.620Z,49.81
2023-08-14T21:52:15.754Z,49.19
2023-08-14T21:54:45.843Z,48.59
2023-08-14T21:57:18.078Z,48.30
2023-08-14T21:59:49.649Z,48.23
2023-08-14T22:02:20.001Z,48.27
2023-08-14T22:04:50.376Z,48.34
2023-08-14T22:07:21.050Z,48.38
2023-08-14T22:09:52.428Z,48.23
2023-08-14T22:12:23.237Z,47.87
2023-08-14T22:14:53.749Z,47.81
2023-08-14T22:17:23.668Z,48.17
2023-08-14T22:19:53.345Z,48.38
2023-08-14T22:22:23.233Z,48.41
2023-08-14T22:24:56.309Z,48.46
2023-08-14T22:27:28.110Z,48.63
2023-08-14T22:29:59.960Z,48.77
2023-08-14T22:32:31.147Z,48.72
2023-08-14T22:35:01.332Z,48.63
2023-08-14T22:37:34.551Z,48.62
2023-08-14T22:40:06.049Z,48.88
2023-08-14T22:42:40.952Z,48.92
2023-08-14T22:45:12.339Z,48.80
2023-08-14T22:47:42.933Z,48.88
2023-08-14T22:50:13.519Z,49.02
2023-08-14T22:52:43.667Z,49.09
2023-08-14T22:55:13.349Z,49.30
2023-08-14T22:57:45.956Z,49.62
2023-08-14T23:00:18.288Z,50.01
2023-08-14T23:02:49.706Z,49.77
2023-08-14T23:05:21.238Z,49.72
2023-08-14T23:07:53.083Z,49.54
2023-08-14T23:10:24.893Z,49.87
2023-08-14T23:12:55.710Z,50.03
2023-08-14T23:15:25.811Z,50.29
2023-08-14T23:17:55.798Z,50.22
2023-08-14T23:20:26.321Z,50.25
2023-08-14T23:22:55.931Z,50.26
2023-08-14T23:25:26.139Z,50.20
2023-08-14T23:27:56.784Z,50.55
2023-08-14T23:30:27.235Z,50.64
2023-08-14T23:32:56.614Z,50.54
2023-08-14T23:35:26.760Z,50.34
2023-08-14T23:37:57.025Z,50.39
2023-08-14T23:40:26.681Z,51.07
2023-08-14T23:42:56.361Z,51.59
2023-08-14T23:45:25.737Z,52.32
2023-08-14T23:47:55.070Z,52.56
2023-08-14T23:50:24.406Z,52.93
2023-08-14T23:52:54.254Z,53.11
2023-08-14T23:55:24.083Z,53.41
2023-08-14T23:57:53.728Z,53.42
